sensor_id;sensor_type;location;lat;lon;timestamp;P1;durP1;ratioP1;P2;durP2;ratioP2
26034;SDS011;13809;48.632;11.576;2024-02-16T00:03:37;4.93;;;4.47;;
26034;SDS011;13809;48.632;11.576;2024-02-16T00:08:40;4.50;;;4.10;;
26034;SDS011;13809;48.632;11.576;2024-02-16T00:13:44;4.67;;;4.37;;
26034;SDS011;13809;48.632;11.576;2024-02-16T00:18:49;4.83;;;4.43;;
26034;SDS011;13809;48.632;11.576;2024-02-16T00:23:52;4.43;;;4.13;;
26034;SDS011;13809;48.632;11.576;2024-02-16T00:28:55;4.73;;;4.30;;
26034;SDS011;13809;48.632;11.576;2024-02-16T00:34:00;4.47;;;4.07;;
26034;SDS011;13809;48.632;11.576;2024-02-16T00:39:04;4.50;;;4.10;;
26034;SDS011;13809;48.632;11.576;2024-02-16T00:44:07;4.30;;;3.90;;
26034;SDS011;13809;48.632;11.576;2024-02-16T00:49:11;4.70;;;4.30;;
26034;SDS011;13809;48.632;11.576;2024-02-16T00:54:14;4.27;;;3.87;;
26034;SDS011;13809;48.632;11.576;2024-02-16T00:59:18;4.30;;;4.00;;
26034;SDS011;13809;48.632;11.576;2024-02-16T01:04:23;4.93;;;4.43;;
26034;SDS011;13809;48.632;11.576;2024-02-16T01:09:27;4.60;;;4.03;;
26034;SDS011;13809;48.632;11.576;2024-02-16T01:14:30;4.93;;;4.53;;
26034;SDS011;13809;48.632;11.576;2024-02-16T01:19:35;4.00;;;3.70;;
26034;SDS011;13809;48.632;11.576;2024-02-16T01:24:38;4.27;;;3.87;;
26034;SDS011;13809;48.632;11.576;2024-02-16T01:29:41;3.93;;;3.63;;
26034;SDS011;13809;48.632;11.576;2024-02-16T01:34:46;3.80;;;3.50;;
26034;SDS011;13809;48.632;11.576;2024-02-16T01:39:51;4.40;;;4.00;;
26034;SDS011;13809;48.632;11.576;2024-02-16T01:44:54;4.60;;;4.20;;
26034;SDS011;13809;48.632;11.576;2024-02-16T01:49:59;4.20;;;3.90;;
26034;SDS011;13809;48.632;11.576;2024-02-16T01:55:03;4.47;;;4.07;;
26034;SDS011;13809;48.632;11.576;2024-02-16T02:00:11;3.90;;;3.60;;
26034;SDS011;13809;48.632;11.576;2024-02-16T02:05:18;4.43;;;4.03;;
26034;SDS011;13809;48.632;11.576;2024-02-16T02:10:21;4.33;;;3.90;;
26034;SDS011;13809;48.632;11.576;2024-02-16T02:15:24;4.33;;;4.03;;
26034;SDS011;13809;48.632;11.576;2024-02-16T02:20:29;4.23;;;3.93;;
26034;SDS011;13809;48.632;11.576;2024-02-16T02:25:34;4.07;;;3.77;;
26034;SDS011;13809;48.632;11.576;2024-02-16T02:30:37;5.40;;;4.90;;
26034;SDS011;13809;48.632;11.576;2024-02-16T02:35:41;5.03;;;4.53;;
26034;SDS011;13809;48.632;11.576;2024-02-16T02:40:45;5.13;;;4.33;;
26034;SDS011;13809;48.632;11.576;2024-02-16T02:45:48;4.40;;;4.00;;
26034;SDS011;13809;48.632;11.576;2024-02-16T02:50:52;4.97;;;4.57;;
26034;SDS011;13809;48.632;11.576;2024-02-16T02:55:56;5.13;;;4.63;;
26034;SDS011;13809;48.632;11.576;2024-02-16T03:00:59;5.43;;;4.20;;
26034;SDS011;13809;48.632;11.576;2024-02-16T03:06:03;4.50;;;4.10;;
26034;SDS011;13809;48.632;11.576;2024-02-16T03:11:08;5.00;;;4.50;;
26034;SDS011;13809;48.632;11.576;2024-02-16T03:16:12;4.97;;;4.47;;
26034;SDS011;13809;48.632;11.576;2024-02-16T03:21:15;5.73;;;4.50;;
26034;SDS011;13809;48.632;11.576;2024-02-16T03:26:21;5.27;;;4.77;;
26034;SDS011;13809;48.632;11.576;2024-02-16T03:31:24;5.10;;;4.60;;
26034;SDS011;13809;48.632;11.576;2024-02-16T03:36:27;5.30;;;4.90;;
26034;SDS011;13809;48.632;11.576;2024-02-16T03:41:33;5.90;;;5.23;;
26034;SDS011;13809;48.632;11.576;2024-02-16T03:46:36;5.03;;;4.63;;
26034;SDS011;13809;48.632;11.576;2024-02-16T03:51:40;5.40;;;4.87;;
26034;SDS011;13809;48.632;11.576;2024-02-16T03:56:44;5.63;;;5.03;;
26034;SDS011;13809;48.632;11.576;2024-02-16T04:01:48;5.80;;;4.30;;
26034;SDS011;13809;48.632;11.576;2024-02-16T04:06:51;4.23;;;3.83;;
26034;SDS011;13809;48.632;11.576;2024-02-16T04:11:55;4.30;;;3.90;;
26034;SDS011;13809;48.632;11.576;2024-02-16T04:16:59;4.10;;;3.80;;
26034;SDS011;13809;48.632;11.576;2024-02-16T04:22:03;4.00;;;3.70;;
26034;SDS011;13809;48.632;11.576;2024-02-16T04:27:07;3.57;;;3.27;;
26034;SDS011;13809;48.632;11.576;2024-02-16T04:32:11;4.00;;;3.70;;
26034;SDS011;13809;48.632;11.576;2024-02-16T04:37:14;4.13;;;3.83;;
26034;SDS011;13809;48.632;11.576;2024-02-16T04:42:21;4.27;;;3.80;;
26034;SDS011;13809;48.632;11.576;2024-02-16T04:47:25;4.70;;;4.40;;
26034;SDS011;13809;48.632;11.576;2024-02-16T04:52:28;6.20;;;5.60;;
26034;SDS011;13809;48.632;11.576;2024-02-16T04:57:33;5.83;;;5.33;;
26034;SDS011;13809;48.632;11.576;2024-02-16T05:02:36;5.57;;;5.07;;
26034;SDS011;13809;48.632;11.576;2024-02-16T05:07:39;5.20;;;4.80;;
26034;SDS011;13809;48.632;11.576;2024-02-16T05:12:44;5.20;;;4.70;;
26034;SDS011;13809;48.632;11.576;2024-02-16T05:17:48;4.70;;;4.30;;
26034;SDS011;13809;48.632;11.576;2024-02-16T05:22:52;4.10;;;3.70;;
26034;SDS011;13809;48.632;11.576;2024-02-16T05:27:57;4.23;;;3.93;;
26034;SDS011;13809;48.632;11.576;2024-02-16T05:33:01;4.20;;;3.80;;
26034;SDS011;13809;48.632;11.576;2024-02-16T05:38:05;4.10;;;3.80;;
26034;SDS011;13809;48.632;11.576;2024-02-16T05:43:23;9.83;;;6.80;;
26034;SDS011;13809;48.632;11.576;2024-02-16T05:48:26;7.40;;;6.27;;
26034;SDS011;13809;48.632;11.576;2024-02-16T05:53:32;8.23;;;7.03;;
26034;SDS011;13809;48.632;11.576;2024-02-16T05:58:37;8.57;;;7.57;;
26034;SDS011;13809;48.632;11.576;2024-02-16T06:03:40;11.47;;;9.50;;
26034;SDS011;13809;48.632;11.576;2024-02-16T06:08:44;13.20;;;10.83;;
26034;SDS011;13809;48.632;11.576;2024-02-16T06:13:48;12.13;;;10.30;;
26034;SDS011;13809;48.632;11.576;2024-02-16T06:18:52;10.27;;;8.00;;
26034;SDS011;13809;48.632;11.576;2024-02-16T06:23:55;8.10;;;7.30;;
26034;SDS011;13809;48.632;11.576;2024-02-16T06:28:59;5.63;;;5.13;;
26034;SDS011;13809;48.632;11.576;2024-02-16T06:34:02;5.90;;;5.40;;
26034;SDS011;13809;48.632;11.576;2024-02-16T06:39:06;6.30;;;5.70;;
26034;SDS011;13809;48.632;11.576;2024-02-16T06:44:10;8.30;;;7.50;;
26034;SDS011;13809;48.632;11.576;2024-02-16T06:49:14;13.30;;;12.00;;
26034;SDS011;13809;48.632;11.576;2024-02-16T06:54:17;10.63;;;9.63;;
26034;SDS011;13809;48.632;11.576;2024-02-16T06:59:21;11.20;;;10.13;;
26034;SDS011;13809;48.632;11.576;2024-02-16T07:04:25;12.83;;;11.20;;
26034;SDS011;13809;48.632;11.576;2024-02-16T07:09:28;10.83;;;9.70;;
26034;SDS011;13809;48.632;11.576;2024-02-16T07:14:34;10.50;;;9.60;;
26034;SDS011;13809;48.632;11.576;2024-02-16T07:19:37;12.43;;;11.23;;
26034;SDS011;13809;48.632;11.576;2024-02-16T07:24:41;9.80;;;8.87;;
26034;SDS011;13809;48.632;11.576;2024-02-16T07:29:45;7.10;;;6.43;;
26034;SDS011;13809;48.632;11.576;2024-02-16T07:34:49;6.83;;;6.23;;
26034;SDS011;13809;48.632;11.576;2024-02-16T07:39:53;6.13;;;5.63;;
26034;SDS011;13809;48.632;11.576;2024-02-16T07:44:57;7.23;;;6.60;;
26034;SDS011;13809;48.632;11.576;2024-02-16T07:50:00;8.83;;;7.93;;
26034;SDS011;13809;48.632;11.576;2024-02-16T07:55:05;10.10;;;8.23;;
26034;SDS011;13809;48.632;11.576;2024-02-16T08:00:10;8.23;;;7.20;;
26034;SDS011;13809;48.632;11.576;2024-02-16T08:05:14;8.10;;;7.30;;
26034;SDS011;13809;48.632;11.576;2024-02-16T08:10:20;8.80;;;7.93;;
26034;SDS011;13809;48.632;11.576;2024-02-16T08:15:25;9.47;;;8.57;;
26034;SDS011;13809;48.632;11.576;2024-02-16T08:20:28;9.43;;;8.60;;
26034;SDS011;13809;48.632;11.576;2024-02-16T08:25:32;9.87;;;8.87;;
26034;SDS011;13809;48.632;11.576;2024-02-16T08:30:37;9.40;;;8.53;;
26034;SDS011;13809;48.632;11.576;2024-02-16T08:35:43;9.00;;;8.30;;
26034;SDS011;13809;48.632;11.576;2024-02-16T08:40:46;9.43;;;8.63;;
26034;SDS011;13809;48.632;11.576;2024-02-16T08:45:54;9.97;;;9.07;;
26034;SDS011;13809;48.632;11.576;2024-02-16T08:50:58;9.23;;;8.43;;
26034;SDS011;13809;48.632;11.576;2024-02-16T08:56:01;9.43;;;8.63;;
26034;SDS011;13809;48.632;11.576;2024-02-16T09:01:06;9.27;;;8.47;;
26034;SDS011;13809;48.632;11.576;2024-02-16T09:06:10;9.40;;;8.50;;
26034;SDS011;13809;48.632;11.576;2024-02-16T09:11:15;8.97;;;8.17;;
26034;SDS011;13809;48.632;11.576;2024-02-16T09:16:20;9.20;;;8.40;;
26034;SDS011;13809;48.632;11.576;2024-02-16T09:21:26;8.97;;;8.17;;
26034;SDS011;13809;48.632;11.576;2024-02-16T09:26:31;8.90;;;8.00;;
26034;SDS011;13809;48.632;11.576;2024-02-16T09:31:37;8.40;;;7.70;;
26034;SDS011;13809;48.632;11.576;2024-02-16T09:36:41;8.33;;;7.63;;
26034;SDS011;13809;48.632;11.576;2024-02-16T09:41:47;8.10;;;7.40;;
26034;SDS011;13809;48.632;11.576;2024-02-16T09:46:55;8.33;;;7.53;;
26034;SDS011;13809;48.632;11.576;2024-02-16T09:51:59;8.73;;;7.83;;
26034;SDS011;13809;48.632;11.576;2024-02-16T09:57:05;8.67;;;7.87;;
26034;SDS011;13809;48.632;11.576;2024-02-16T10:02:11;8.20;;;7.50;;
26034;SDS011;13809;48.632;11.576;2024-02-16T10:07:14;8.47;;;7.67;;
26034;SDS011;13809;48.632;11.576;2024-02-16T10:12:17;8.33;;;7.63;;
26034;SDS011;13809;48.632;11.576;2024-02-16T10:17:23;8.80;;;8.00;;
26034;SDS011;13809;48.632;11.576;2024-02-16T10:22:26;8.23;;;7.43;;
26034;SDS011;13809;48.632;11.576;2024-02-16T10:27:30;8.27;;;7.60;;
26034;SDS011;13809;48.632;11.576;2024-02-16T10:32:35;7.60;;;7.00;;
26034;SDS011;13809;48.632;11.576;2024-02-16T10:37:39;11.07;;;7.57;;
26034;SDS011;13809;48.632;11.576;2024-02-16T10:42:43;6.83;;;6.23;;
26034;SDS011;13809;48.632;11.576;2024-02-16T10:47:49;8.03;;;6.87;;
26034;SDS011;13809;48.632;11.576;2024-02-16T10:52:53;6.47;;;5.80;;
26034;SDS011;13809;48.632;11.576;2024-02-16T10:57:58;6.93;;;6.40;;
26034;SDS011;13809;48.632;11.576;2024-02-16T11:03:05;6.77;;;6.17;;
26034;SDS011;13809;48.632;11.576;2024-02-16T11:08:11;7.47;;;6.70;;
26034;SDS011;13809;48.632;11.576;2024-02-16T11:13:15;7.63;;;6.87;;
26034;SDS011;13809;48.632;11.576;2024-02-16T11:18:26;7.30;;;6.57;;
26034;SDS011;13809;48.632;11.576;2024-02-16T11:23:30;7.10;;;6.40;;
26034;SDS011;13809;48.632;11.576;2024-02-16T11:28:34;6.53;;;5.93;;
26034;SDS011;13809;48.632;11.576;2024-02-16T11:33:43;6.23;;;5.63;;
26034;SDS011;13809;48.632;11.576;2024-02-16T11:38:47;5.63;;;5.13;;
26034;SDS011;13809;48.632;11.576;2024-02-16T11:43:58;5.67;;;5.10;;
26034;SDS011;13809;48.632;11.576;2024-02-16T11:49:07;6.10;;;5.50;;
26034;SDS011;13809;48.632;11.576;2024-02-16T11:54:11;6.00;;;5.37;;
26034;SDS011;13809;48.632;11.576;2024-02-16T11:59:15;6.30;;;5.40;;
26034;SDS011;13809;48.632;11.576;2024-02-16T12:04:21;6.03;;;5.27;;
26034;SDS011;13809;48.632;11.576;2024-02-16T12:09:25;5.07;;;4.60;;
26034;SDS011;13809;48.632;11.576;2024-02-16T12:14:30;5.83;;;5.33;;
26034;SDS011;13809;48.632;11.576;2024-02-16T12:19:36;5.30;;;4.80;;
26034;SDS011;13809;48.632;11.576;2024-02-16T12:24:46;5.80;;;4.27;;
26034;SDS011;13809;48.632;11.576;2024-02-16T12:29:51;4.40;;;4.00;;
26034;SDS011;13809;48.632;11.576;2024-02-16T12:34:56;4.93;;;4.50;;
26034;SDS011;13809;48.632;11.576;2024-02-16T12:39:59;4.20;;;3.90;;
26034;SDS011;13809;48.632;11.576;2024-02-16T12:45:03;5.27;;;4.77;;
26034;SDS011;13809;48.632;11.576;2024-02-16T12:50:11;5.00;;;4.50;;
26034;SDS011;13809;48.632;11.576;2024-02-16T12:55:15;5.10;;;4.60;;
26034;SDS011;13809;48.632;11.576;2024-02-16T13:00:18;4.97;;;4.57;;
26034;SDS011;13809;48.632;11.576;2024-02-16T13:05:24;5.13;;;4.63;;
26034;SDS011;13809;48.632;11.576;2024-02-16T13:10:27;4.70;;;4.33;;
26034;SDS011;13809;48.632;11.576;2024-02-16T13:15:31;4.57;;;4.17;;
26034;SDS011;13809;48.632;11.576;2024-02-16T13:20:36;4.83;;;4.43;;
26034;SDS011;13809;48.632;11.576;2024-02-16T13:25:39;5.33;;;4.83;;
26034;SDS011;13809;48.632;11.576;2024-02-16T13:30:42;5.57;;;4.80;;
26034;SDS011;13809;48.632;11.576;2024-02-16T13:35:47;5.53;;;5.03;;
26034;SDS011;13809;48.632;11.576;2024-02-16T13:40:51;5.00;;;4.60;;
26034;SDS011;13809;48.632;11.576;2024-02-16T13:45:54;6.13;;;5.07;;
26034;SDS011;13809;48.632;11.576;2024-02-16T13:51:00;5.77;;;4.80;;
26034;SDS011;13809;48.632;11.576;2024-02-16T13:56:04;5.77;;;5.17;;
26034;SDS011;13809;48.632;11.576;2024-02-16T14:01:08;5.67;;;5.13;;
26034;SDS011;13809;48.632;11.576;2024-02-16T14:06:13;5.50;;;5.00;;
26034;SDS011;13809;48.632;11.576;2024-02-16T14:11:17;6.90;;;5.53;;
26034;SDS011;13809;48.632;11.576;2024-02-16T14:16:21;5.50;;;5.00;;
26034;SDS011;13809;48.632;11.576;2024-02-16T14:21:25;5.37;;;4.93;;
26034;SDS011;13809;48.632;11.576;2024-02-16T14:26:33;6.00;;;5.40;;
26034;SDS011;13809;48.632;11.576;2024-02-16T14:31:36;9.00;;;5.83;;
26034;SDS011;13809;48.632;11.576;2024-02-16T14:36:40;6.47;;;5.87;;
26034;SDS011;13809;48.632;11.576;2024-02-16T14:41:44;6.27;;;5.67;;
26034;SDS011;13809;48.632;11.576;2024-02-16T14:46:47;9.40;;;6.40;;
26034;SDS011;13809;48.632;11.576;2024-02-16T14:51:51;6.07;;;5.47;;
26034;SDS011;13809;48.632;11.576;2024-02-16T14:56:56;7.87;;;7.00;;
26034;SDS011;13809;48.632;11.576;2024-02-16T15:01:59;6.23;;;5.70;;
26034;SDS011;13809;48.632;11.576;2024-02-16T15:07:05;9.50;;;8.70;;
26034;SDS011;13809;48.632;11.576;2024-02-16T15:12:08;8.53;;;7.80;;
26034;SDS011;13809;48.632;11.576;2024-02-16T15:17:11;7.07;;;5.60;;
26034;SDS011;13809;48.632;11.576;2024-02-16T15:22:16;5.57;;;5.10;;
26034;SDS011;13809;48.632;11.576;2024-02-16T15:27:19;6.67;;;6.07;;
26034;SDS011;13809;48.632;11.576;2024-02-16T15:32:22;11.10;;;10.17;;
26034;SDS011;13809;48.632;11.576;2024-02-16T15:37:27;15.57;;;14.07;;
26034;SDS011;13809;48.632;11.576;2024-02-16T15:42:30;8.10;;;7.40;;
26034;SDS011;13809;48.632;11.576;2024-02-16T15:47:36;7.37;;;5.03;;
26034;SDS011;13809;48.632;11.576;2024-02-16T15:52:42;5.77;;;5.27;;
26034;SDS011;13809;48.632;11.576;2024-02-16T15:57:45;5.53;;;5.03;;
26034;SDS011;13809;48.632;11.576;2024-02-16T16:02:49;5.80;;;5.30;;
26034;SDS011;13809;48.632;11.576;2024-02-16T16:07:53;8.50;;;6.40;;
26034;SDS011;13809;48.632;11.576;2024-02-16T16:12:56;5.97;;;5.37;;
26034;SDS011;13809;48.632;11.576;2024-02-16T16:18:00;6.80;;;6.10;;
26034;SDS011;13809;48.632;11.576;2024-02-16T16:23:05;6.23;;;5.73;;
26034;SDS011;13809;48.632;11.576;2024-02-16T16:28:10;29.17;;;18.60;;
26034;SDS011;13809;48.632;11.576;2024-02-16T16:33:13;8.63;;;7.70;;
26034;SDS011;13809;48.632;11.576;2024-02-16T16:38:18;8.03;;;6.30;;
26034;SDS011;13809;48.632;11.576;2024-02-16T16:43:22;5.60;;;5.10;;
26034;SDS011;13809;48.632;11.576;2024-02-16T16:48:25;6.20;;;5.67;;
26034;SDS011;13809;48.632;11.576;2024-02-16T16:53:30;5.30;;;4.73;;
26034;SDS011;13809;48.632;11.576;2024-02-16T16:58:33;5.40;;;4.90;;
26034;SDS011;13809;48.632;11.576;2024-02-16T17:03:36;32.57;;;18.97;;
26034;SDS011;13809;48.632;11.576;2024-02-16T17:08:40;26.67;;;17.97;;
26034;SDS011;13809;48.632;11.576;2024-02-16T17:13:46;12.83;;;11.37;;
26034;SDS011;13809;48.632;11.576;2024-02-16T17:18:50;10.77;;;9.67;;
26034;SDS011;13809;48.632;11.576;2024-02-16T17:23:55;20.90;;;18.73;;
26034;SDS011;13809;48.632;11.576;2024-02-16T17:28:58;16.90;;;15.20;;
26034;SDS011;13809;48.632;11.576;2024-02-16T17:34:02;9.60;;;8.70;;
26034;SDS011;13809;48.632;11.576;2024-02-16T17:39:11;8.67;;;7.73;;
26034;SDS011;13809;48.632;11.576;2024-02-16T17:44:14;9.03;;;8.13;;
26034;SDS011;13809;48.632;11.576;2024-02-16T17:49:17;8.80;;;8.00;;
26034;SDS011;13809;48.632;11.576;2024-02-16T17:54:22;8.67;;;7.87;;
26034;SDS011;13809;48.632;11.576;2024-02-16T17:59:26;16.90;;;15.13;;
26034;SDS011;13809;48.632;11.576;2024-02-16T18:04:29;13.77;;;12.33;;
26034;SDS011;13809;48.632;11.576;2024-02-16T18:09:36;12.30;;;11.00;;
26034;SDS011;13809;48.632;11.576;2024-02-16T18:14:39;11.40;;;10.30;;
26034;SDS011;13809;48.632;11.576;2024-02-16T18:19:43;12.20;;;10.93;;
26034;SDS011;13809;48.632;11.576;2024-02-16T18:24:47;10.80;;;9.70;;
26034;SDS011;13809;48.632;11.576;2024-02-16T18:29:51;8.80;;;7.90;;
26034;SDS011;13809;48.632;11.576;2024-02-16T18:34:54;10.30;;;9.30;;
26034;SDS011;13809;48.632;11.576;2024-02-16T18:39:59;9.10;;;8.20;;
26034;SDS011;13809;48.632;11.576;2024-02-16T18:45:03;8.53;;;7.73;;
26034;SDS011;13809;48.632;11.576;2024-02-16T18:50:10;13.83;;;11.13;;
26034;SDS011;13809;48.632;11.576;2024-02-16T18:55:15;11.07;;;9.97;;
26034;SDS011;13809;48.632;11.576;2024-02-16T19:00:18;11.93;;;10.73;;
26034;SDS011;13809;48.632;11.576;2024-02-16T19:05:22;12.37;;;11.03;;
26034;SDS011;13809;48.632;11.576;2024-02-16T19:10:27;10.47;;;9.37;;
26034;SDS011;13809;48.632;11.576;2024-02-16T19:15:32;10.27;;;9.13;;
26034;SDS011;13809;48.632;11.576;2024-02-16T19:20:36;11.73;;;10.20;;
26034;SDS011;13809;48.632;11.576;2024-02-16T19:25:41;10.37;;;8.63;;
26034;SDS011;13809;48.632;11.576;2024-02-16T19:30:44;11.20;;;10.00;;
26034;SDS011;13809;48.632;11.576;2024-02-16T19:35:48;9.70;;;8.70;;
26034;SDS011;13809;48.632;11.576;2024-02-16T19:40:55;10.73;;;9.73;;
26034;SDS011;13809;48.632;11.576;2024-02-16T19:45:58;9.83;;;8.93;;
26034;SDS011;13809;48.632;11.576;2024-02-16T19:51:04;12.13;;;10.97;;
26034;SDS011;13809;48.632;11.576;2024-02-16T19:56:08;10.20;;;9.30;;
26034;SDS011;13809;48.632;11.576;2024-02-16T20:01:12;10.20;;;9.07;;
26034;SDS011;13809;48.632;11.576;2024-02-16T20:06:16;10.37;;;9.37;;
26034;SDS011;13809;48.632;11.576;2024-02-16T20:11:21;10.77;;;8.80;;
26034;SDS011;13809;48.632;11.576;2024-02-16T20:16:24;9.37;;;8.40;;
26034;SDS011;13809;48.632;11.576;2024-02-16T20:21:27;8.20;;;7.43;;
26034;SDS011;13809;48.632;11.576;2024-02-16T20:26:32;8.33;;;7.63;;
26034;SDS011;13809;48.632;11.576;2024-02-16T20:31:35;10.80;;;8.93;;
26034;SDS011;13809;48.632;11.576;2024-02-16T20:36:40;10.07;;;9.07;;
26034;SDS011;13809;48.632;11.576;2024-02-16T20:41:45;10.50;;;9.17;;
26034;SDS011;13809;48.632;11.576;2024-02-16T20:46:49;15.83;;;13.53;;
26034;SDS011;13809;48.632;11.576;2024-02-16T20:51:52;13.73;;;11.47;;
26034;SDS011;13809;48.632;11.576;2024-02-16T20:56:57;11.10;;;10.00;;
26034;SDS011;13809;48.632;11.576;2024-02-16T21:02:01;10.27;;;7.57;;
26034;SDS011;13809;48.632;11.576;2024-02-16T21:07:05;9.20;;;7.63;;
26034;SDS011;13809;48.632;11.576;2024-02-16T21:12:09;10.00;;;9.00;;
26034;SDS011;13809;48.632;11.576;2024-02-16T21:17:13;9.60;;;8.60;;
26034;SDS011;13809;48.632;11.576;2024-02-16T21:22:17;10.60;;;9.50;;
26034;SDS011;13809;48.632;11.576;2024-02-16T21:27:21;17.10;;;15.40;;
26034;SDS011;13809;48.632;11.576;2024-02-16T21:32:26;24.73;;;22.23;;
26034;SDS011;13809;48.632;11.576;2024-02-16T21:37:30;18.37;;;16.67;;
26034;SDS011;13809;48.632;11.576;2024-02-16T21:42:34;12.80;;;10.43;;
26034;SDS011;13809;48.632;11.576;2024-02-16T21:47:38;12.83;;;10.03;;
26034;SDS011;13809;48.632;11.576;2024-02-16T21:52:41;9.60;;;8.70;;
26034;SDS011;13809;48.632;11.576;2024-02-16T21:57:45;9.83;;;8.83;;
26034;SDS011;13809;48.632;11.576;2024-02-16T22:02:49;9.37;;;7.87;;
26034;SDS011;13809;48.632;11.576;2024-02-16T22:07:52;9.27;;;8.43;;
26034;SDS011;13809;48.632;11.576;2024-02-16T22:12:56;9.60;;;8.47;;
26034;SDS011;13809;48.632;11.576;2024-02-16T22:18:01;10.63;;;9.53;;
26034;SDS011;13809;48.632;11.576;2024-02-16T22:23:04;10.00;;;9.00;;
26034;SDS011;13809;48.632;11.576;2024-02-16T22:28:09;14.43;;;9.90;;
26034;SDS011;13809;48.632;11.576;2024-02-16T22:33:12;12.07;;;10.77;;
26034;SDS011;13809;48.632;11.576;2024-02-16T22:38:16;12.13;;;9.13;;
26034;SDS011;13809;48.632;11.576;2024-02-16T22:43:20;12.23;;;9.87;;
26034;SDS011;13809;48.632;11.576;2024-02-16T22:48:23;11.87;;;10.00;;
26034;SDS011;13809;48.632;11.576;2024-02-16T22:53:27;13.50;;;12.30;;
26034;SDS011;13809;48.632;11.576;2024-02-16T22:58:31;9.47;;;8.50;;
26034;SDS011;13809;48.632;11.576;2024-02-16T23:03:34;8.50;;;7.70;;
26034;SDS011;13809;48.632;11.576;2024-02-16T23:08:38;9.77;;;8.77;;
26034;SDS011;13809;48.632;11.576;2024-02-16T23:13:42;11.57;;;10.47;;
26034;SDS011;13809;48.632;11.576;2024-02-16T23:18:45;10.40;;;9.10;;
26034;SDS011;13809;48.632;11.576;2024-02-16T23:23:49;9.13;;;8.33;;
26034;SDS011;13809;48.632;11.576;2024-02-16T23:28:54;11.07;;;9.00;;
26034;SDS011;13809;48.632;11.576;2024-02-16T23:33:58;8.63;;;7.73;;
26034;SDS011;13809;48.632;11.576;2024-02-16T23:39:01;8.33;;;7.50;;
26034;SDS011;13809;48.632;11.576;2024-02-16T23:44:06;7.73;;;6.93;;
26034;SDS011;13809;48.632;11.576;2024-02-16T23:49:09;7.97;;;7.17;;
26034;SDS011;13809;48.632;11.576;2024-02-16T23:54:14;7.97;;;7.23;;
26034;SDS011;13809;48.632;11.576;2024-02-16T23:59:19;7.80;;;7.10;;
